createdAt,value
2017-11-19T00:00:40.541Z,0.00
2017-11-19T00:01:40.572Z,0.00
2017-11-19T00:02:40.596Z,0.00
2017-11-19T00:03:40.625Z,0.00
2017-11-19T00:04:40.652Z,0.00
2017-11-19T00:05:40.679Z,0.00
2017-11-19T00:06:40.758Z,0.00
2017-11-19T00:07:40.742Z,0.00
2017-11-19T00:08:40.762Z,0.00
2017-11-19T00:09:40.790Z,0.00
2017-11-19T00:10:40.817Z,0.00
2017-11-19T00:11:40.846Z,0.00
2017-11-19T00:12:40.874Z,0.00
2017-11-19T00:13:40.901Z,0.00
2017-11-19T00:14:40.927Z,0.00
2017-11-19T00:15:40.956Z,0.00
2017-11-19T00:16:40.984Z,0.00
2017-11-19T00:17:41.010Z,0.00
2017-11-19T00:18:41.044Z,0.00
2017-11-19T00:19:41.067Z,0.00
2017-11-19T00:20:41.094Z,0.00
2017-11-19T00:21:41.222Z,0.00
2017-11-19T00:22:41.150Z,0.00
2017-11-19T00:23:41.181Z,0.00
2017-11-19T00:24:41.215Z,0.00
2017-11-19T00:25:41.232Z,0.00
2017-11-19T00:26:41.260Z,0.00
2017-11-19T00:27:41.288Z,0.00
2017-11-19T00:28:41.316Z,0.00
2017-11-19T00:29:41.349Z,0.00
2017-11-19T00:30:41.371Z,0.00
2017-11-19T00:31:41.399Z,0.00
2017-11-19T00:32:41.427Z,0.00
2017-11-19T00:33:41.453Z,0.00
2017-11-19T00:34:41.481Z,0.00
2017-11-19T00:35:41.537Z,0.00
2017-11-19T00:36:41.539Z,0.00
2017-11-19T00:37:41.563Z,0.00
2017-11-19T00:38:41.593Z,0.00
2017-11-19T00:39:41.624Z,0.00
2017-11-19T00:40:41.647Z,0.00
2017-11-19T00:41:41.679Z,0.00
2017-11-19T00:42:41.702Z,0.00
2017-11-19T00:43:41.731Z,0.00
2017-11-19T00:44:41.758Z,0.00
2017-11-19T00:45:41.788Z,0.00
2017-11-19T00:46:41.814Z,0.00
2017-11-19T00:47:41.842Z,0.00
2017-11-19T00:48:41.871Z,0.00
2017-11-19T00:49:41.897Z,0.00
2017-11-19T00:50:41.925Z,0.00
2017-11-19T00:51:41.954Z,0.00
2017-11-19T00:52:41.981Z,0.00
2017-11-19T00:53:42.008Z,0.00
2017-11-19T00:54:42.036Z,0.00
2017-11-19T00:55:42.064Z,0.00
2017-11-19T00:56:42.096Z,0.00
2017-11-19T00:57:42.119Z,0.00
2017-11-19T00:58:42.145Z,0.00
2017-11-19T00:59:42.174Z,0.00
2017-11-19T01:00:42.201Z,0.00
2017-11-19T01:01:42.237Z,0.00
2017-11-19T01:02:42.256Z,0.00
2017-11-19T01:03:42.285Z,0.00
2017-11-19T01:04:42.317Z,0.00
2017-11-19T01:05:42.341Z,0.00
2017-11-19T01:06:42.365Z,0.00
2017-11-19T01:07:42.393Z,0.00
2017-11-19T01:08:42.423Z,0.00
2017-11-19T01:09:42.450Z,0.00
2017-11-19T01:10:42.477Z,0.00
2017-11-19T01:11:42.504Z,0.00
2017-11-19T01:12:42.533Z,0.00
2017-11-19T01:13:42.559Z,0.00
2017-11-19T01:14:42.588Z,0.00
2017-11-19T01:15:42.618Z,0.00
2017-11-19T01:16:42.645Z,0.00
2017-11-19T01:17:42.679Z,0.00
2017-11-19T01:18:42.698Z,0.00
2017-11-19T01:19:42.726Z,0.00
2017-11-19T01:20:42.755Z,0.00
2017-11-19T01:21:42.781Z,0.00
2017-11-19T01:22:42.810Z,0.00
2017-11-19T01:23:42.837Z,0.00
2017-11-19T01:24:42.865Z,0.00
2017-11-19T01:25:42.892Z,0.00
2017-11-19T01:26:42.920Z,0.00
2017-11-19T01:27:42.948Z,0.00
2017-11-19T01:28:42.975Z,0.00
2017-11-19T01:29:43.001Z,0.00
2017-11-19T01:30:43.034Z,0.00
2017-11-19T01:31:43.058Z,0.00
2017-11-19T01:32:43.085Z,0.00
2017-11-19T01:33:43.113Z,0.00
2017-11-19T01:34:43.140Z,0.00
2017-11-19T01:35:43.169Z,0.00
2017-11-19T01:36:43.195Z,0.00
2017-11-19T01:37:43.224Z,0.00
2017-11-19T01:38:43.252Z,0.00
2017-11-19T01:39:43.280Z,0.00
2017-11-19T01:40:43.309Z,0.00
2017-11-19T01:41:43.334Z,0.00
2017-11-19T01:42:43.363Z,0.00
2017-11-19T01:43:43.391Z,0.00
2017-11-19T01:44:43.418Z,0.00
2017-11-19T01:45:43.445Z,0.00
2017-11-19T01:46:43.473Z,0.00
2017-11-19T01:47:43.501Z,0.00
2017-11-19T01:48:43.529Z,0.00
2017-11-19T01:49:43.557Z,0.00
2017-11-19T01:50:43.584Z,0.00
2017-11-19T01:51:43.612Z,0.00
2017-11-19T01:52:43.640Z,0.00
2017-11-19T01:53:43.668Z,0.00
2017-11-19T01:54:43.695Z,0.00
2017-11-19T01:55:43.724Z,0.00
2017-11-19T01:56:43.751Z,0.00
2017-11-19T01:57:43.779Z,0.00
2017-11-19T01:58:43.806Z,0.00
2017-11-19T01:59:43.835Z,0.00
2017-11-19T02:00:43.862Z,0.00
2017-11-19T02:01:43.889Z,0.00
2017-11-19T02:02:43.917Z,0.00
2017-11-19T02:03:43.945Z,0.00
2017-11-19T02:04:43.973Z,0.00
2017-11-19T02:05:43.999Z,0.00
2017-11-19T02:06:44.027Z,0.00
2017-11-19T02:07:44.055Z,0.00
2017-11-19T02:08:44.087Z,0.00
2017-11-19T02:09:44.113Z,0.00
2017-11-19T02:10:44.139Z,0.00
2017-11-19T02:11:44.166Z,0.00
2017-11-19T02:12:44.200Z,0.00
2017-11-19T02:13:44.223Z,0.00
2017-11-19T02:14:44.251Z,0.00
2017-11-19T02:15:44.279Z,0.00
2017-11-19T02:16:44.306Z,0.00
2017-11-19T02:17:44.333Z,0.00
2017-11-19T02:18:44.362Z,0.00
2017-11-19T02:19:44.389Z,0.00
2017-11-19T02:20:44.420Z,0.00
2017-11-19T02:21:44.444Z,0.00
2017-11-19T02:22:44.473Z,0.00
2017-11-19T02:23:44.499Z,0.00
2017-11-19T02:24:44.529Z,0.00
2017-11-19T02:25:44.555Z,0.00
2017-11-19T02:26:44.584Z,0.00
2017-11-19T02:27:44.610Z,0.00
2017-11-19T02:28:44.639Z,0.00
2017-11-19T02:29:44.665Z,0.00
2017-11-19T02:30:44.705Z,0.00
2017-11-19T02:31:44.722Z,0.00
2017-11-19T02:32:44.750Z,0.00
2017-11-19T02:33:44.775Z,0.00
2017-11-19T02:34:44.806Z,0.00
2017-11-19T02:35:44.832Z,0.00
2017-11-19T02:36:44.859Z,0.00
2017-11-19T02:37:44.888Z,0.00
2017-11-19T02:38:44.914Z,0.00
2017-11-19T02:39:44.942Z,0.00
2017-11-19T02:40:44.972Z,0.00
2017-11-19T02:41:44.998Z,0.00
2017-11-19T02:42:45.025Z,0.00
2017-11-19T02:43:45.055Z,0.00
2017-11-19T02:44:45.080Z,0.00
2017-11-19T02:45:45.111Z,0.00
2017-11-19T02:46:45.136Z,0.00
2017-11-19T02:47:45.165Z,0.00
2017-11-19T02:48:45.192Z,0.00
2017-11-19T02:49:45.218Z,0.00
2017-11-19T02:50:45.245Z,0.00
2017-11-19T02:51:45.274Z,0.00
2017-11-19T02:52:45.302Z,0.00
2017-11-19T02:53:45.329Z,0.00
2017-11-19T02:54:45.360Z,0.00
2017-11-19T02:55:45.384Z,0.00
2017-11-19T02:56:45.411Z,0.00
2017-11-19T02:57:45.438Z,0.00
2017-11-19T02:58:45.466Z,0.00
2017-11-19T02:59:45.544Z,0.00
2017-11-19T03:00:45.521Z,0.00
2017-11-19T03:01:45.548Z,0.00
2017-11-19T03:02:45.575Z,0.00
2017-11-19T03:03:45.605Z,0.00
2017-11-19T03:04:45.630Z,0.00
2017-11-19T03:05:45.658Z,0.00
2017-11-19T03:06:45.685Z,0.00
2017-11-19T03:07:45.714Z,0.00
2017-11-19T03:08:45.741Z,0.00
2017-11-19T03:09:45.793Z,0.00
2017-11-19T03:10:45.796Z,0.00
2017-11-19T03:11:45.824Z,0.00
2017-11-19T03:12:45.854Z,0.00
2017-11-19T03:13:45.878Z,0.00
2017-11-19T03:14:45.905Z,0.00
2017-11-19T03:15:45.932Z,0.00
2017-11-19T03:16:45.960Z,0.00
2017-11-19T03:17:45.987Z,0.00
2017-11-19T03:18:46.016Z,0.00
2017-11-19T03:19:46.045Z,0.00
2017-11-19T03:20:46.072Z,0.00
2017-11-19T03:21:46.099Z,0.00
2017-11-19T03:22:46.126Z,0.00
2017-11-19T03:23:46.154Z,0.00
2017-11-19T03:24:46.182Z,0.00
2017-11-19T03:25:46.208Z,0.00
2017-11-19T03:26:46.244Z,0.00
2017-11-19T03:27:46.267Z,0.00
2017-11-19T03:28:46.292Z,0.00
2017-11-19T03:29:46.320Z,0.00
2017-11-19T03:30:46.351Z,0.00
2017-11-19T03:31:46.374Z,0.00
2017-11-19T03:32:46.403Z,0.00
2017-11-19T03:33:46.429Z,0.00
2017-11-19T03:34:46.456Z,0.00
2017-11-19T03:35:46.484Z,0.00
2017-11-19T03:36:46.510Z,0.00
2017-11-19T03:37:46.538Z,0.00
2017-11-19T03:38:46.567Z,0.00
2017-11-19T03:39:46.593Z,0.00
2017-11-19T03:40:46.622Z,0.00
2017-11-19T03:41:46.648Z,0.00
2017-11-19T03:42:46.674Z,0.00
2017-11-19T03:43:46.702Z,0.00
2017-11-19T03:44:46.757Z,0.00
2017-11-19T03:45:46.763Z,0.00
2017-11-19T03:46:46.786Z,0.00
2017-11-19T03:47:46.812Z,0.00
2017-11-19T03:48:46.840Z,0.00
2017-11-19T03:49:46.867Z,0.00
2017-11-19T03:50:46.895Z,0.00
2017-11-19T03:51:46.922Z,0.00
2017-11-19T03:52:46.949Z,0.00
2017-11-19T03:53:46.977Z,0.00
2017-11-19T03:54:47.002Z,0.00
2017-11-19T03:55:47.031Z,0.00
2017-11-19T03:56:47.058Z,0.00
2017-11-19T03:57:47.085Z,0.00
2017-11-19T03:58:47.112Z,0.00
2017-11-19T03:59:47.140Z,0.00
2017-11-19T04:00:47.169Z,0.00
2017-11-19T04:01:47.194Z,0.00
2017-11-19T04:02:47.220Z,0.00
2017-11-19T04:03:47.250Z,0.00
2017-11-19T04:04:47.276Z,0.00
2017-11-19T04:05:47.301Z,0.00
2017-11-19T04:06:47.329Z,0.00
2017-11-19T04:07:47.357Z,0.00
2017-11-19T04:08:47.384Z,0.00
2017-11-19T04:09:47.411Z,0.00
2017-11-19T04:10:47.438Z,0.00
2017-11-19T04:11:47.466Z,0.00
2017-11-19T04:12:47.493Z,0.00
2017-11-19T04:13:47.520Z,0.00
2017-11-19T04:14:47.547Z,0.00
2017-11-19T04:15:47.574Z,0.00
2017-11-19T04:16:47.602Z,0.00
2017-11-19T04:17:47.628Z,0.00
2017-11-19T04:18:47.660Z,0.00
2017-11-19T04:19:47.688Z,0.00
2017-11-19T04:20:47.712Z,0.00
2017-11-19T04:21:47.736Z,0.00
2017-11-19T04:22:47.767Z,0.00
2017-11-19T04:23:47.793Z,0.00
2017-11-19T04:24:47.830Z,0.00
2017-11-19T04:25:47.847Z,0.00
2017-11-19T04:26:47.875Z,0.00
2017-11-19T04:27:47.902Z,0.00
2017-11-19T04:28:47.929Z,0.00
2017-11-19T04:29:47.956Z,0.00
2017-11-19T04:30:47.984Z,0.00
2017-11-19T04:31:48.011Z,0.00
2017-11-19T04:32:48.039Z,0.00
2017-11-19T04:33:48.065Z,0.00
2017-11-19T04:34:48.092Z,0.00
2017-11-19T04:35:48.120Z,0.00
2017-11-19T04:36:48.154Z,0.00
2017-11-19T04:37:48.200Z,0.00
2017-11-19T04:38:48.200Z,0.00
2017-11-19T04:39:48.228Z,0.00
2017-11-19T04:40:48.255Z,0.00
2017-11-19T04:41:48.282Z,0.00
2017-11-19T04:42:48.311Z,0.00
2017-11-19T04:43:48.336Z,0.00
2017-11-19T04:44:48.365Z,0.00
2017-11-19T04:45:48.391Z,0.00
2017-11-19T04:46:48.418Z,0.00
2017-11-19T04:47:48.445Z,0.00
2017-11-19T04:48:48.472Z,0.00
2017-11-19T04:49:48.498Z,0.00
2017-11-19T04:50:48.528Z,0.00
2017-11-19T04:51:48.555Z,0.00
2017-11-19T04:52:48.582Z,0.00
2017-11-19T04:53:48.609Z,0.00
2017-11-19T04:54:48.649Z,0.00
2017-11-19T04:55:48.664Z,0.00
2017-11-19T04:56:48.691Z,0.00
2017-11-19T04:57:48.717Z,0.00
2017-11-19T04:58:48.746Z,0.00
2017-11-19T04:59:48.773Z,0.00
2017-11-19T05:00:48.803Z,0.00
2017-11-19T05:01:48.831Z,0.00
2017-11-19T05:02:48.855Z,0.00
2017-11-19T05:03:48.882Z,0.00
2017-11-19T05:04:48.910Z,0.00
2017-11-19T05:05:48.935Z,0.00
2017-11-19T05:06:48.963Z,0.00
2017-11-19T05:07:48.990Z,0.00
2017-11-19T05:08:49.019Z,0.00
2017-11-19T05:09:49.044Z,0.00
2017-11-19T05:10:49.073Z,0.00
2017-11-19T05:11:49.101Z,0.00
2017-11-19T05:12:49.128Z,0.00
2017-11-19T05:13:49.155Z,0.00
2017-11-19T05:14:49.183Z,0.00
2017-11-19T05:15:49.210Z,0.00
2017-11-19T05:16:49.239Z,0.00
2017-11-19T05:17:49.264Z,0.00
2017-11-19T05:18:49.293Z,0.00
2017-11-19T05:19:49.320Z,0.00
2017-11-19T05:20:49.348Z,0.00
2017-11-19T05:21:49.374Z,0.00
2017-11-19T05:22:49.403Z,0.00
2017-11-19T05:23:49.430Z,0.00
2017-11-19T05:24:49.457Z,0.00
2017-11-19T05:25:49.489Z,0.00
2017-11-19T05:26:49.520Z,0.00
2017-11-19T05:27:49.538Z,0.00
2017-11-19T05:28:49.566Z,0.00
2017-11-19T05:29:49.595Z,0.00
2017-11-19T05:30:49.622Z,0.00
2017-11-19T05:31:49.652Z,0.00
2017-11-19T05:32:49.677Z,0.00
2017-11-19T05:33:49.703Z,0.00
2017-11-19T05:34:49.732Z,0.00
2017-11-19T05:35:49.759Z,0.00
2017-11-19T05:36:49.789Z,0.00
2017-11-19T05:37:49.814Z,0.00
2017-11-19T05:38:49.842Z,0.00
2017-11-19T05:39:49.869Z,0.00
2017-11-19T05:40:49.897Z,0.00
2017-11-19T05:41:49.923Z,0.00
2017-11-19T05:42:49.952Z,0.00
2017-11-19T05:43:49.978Z,0.00
2017-11-19T05:44:50.009Z,0.00
2017-11-19T05:45:50.034Z,0.00
2017-11-19T05:46:50.063Z,0.00
2017-11-19T05:47:50.089Z,0.00
2017-11-19T05:48:50.116Z,0.00
2017-11-19T05:49:50.145Z,0.00
2017-11-19T05:50:50.172Z,0.00
2017-11-19T05:51:50.201Z,0.00
2017-11-19T05:52:50.228Z,0.00
2017-11-19T05:53:50.255Z,0.00
2017-11-19T05:54:50.283Z,0.00
2017-11-19T05:55:50.310Z,0.00
2017-11-19T05:56:50.339Z,0.00
2017-11-19T05:57:50.364Z,0.00
2017-11-19T05:58:50.397Z,0.00
2017-11-19T05:59:50.420Z,0.00
2017-11-19T06:00:50.448Z,0.00
2017-11-19T06:01:50.475Z,0.00
2017-11-19T06:02:50.503Z,0.00
2017-11-19T06:03:50.531Z,0.00
2017-11-19T06:04:50.560Z,0.00
2017-11-19T06:05:50.586Z,0.00
2017-11-19T06:06:50.613Z,0.00
2017-11-19T06:07:50.640Z,0.00
2017-11-19T06:08:50.668Z,0.00
2017-11-19T06:09:50.696Z,0.00
2017-11-19T06:10:50.724Z,0.00
2017-11-19T06:11:50.752Z,0.00
2017-11-19T06:12:50.780Z,0.00
2017-11-19T06:13:50.807Z,0.00
2017-11-19T06:14:50.835Z,0.00
2017-11-19T06:15:50.864Z,0.00
2017-11-19T06:16:50.891Z,0.00
2017-11-19T06:17:50.924Z,0.00
2017-11-19T06:18:50.948Z,0.00
2017-11-19T06:19:50.976Z,0.00
2017-11-19T06:20:51.003Z,0.00
2017-11-19T06:21:51.030Z,0.00
2017-11-19T06:22:51.061Z,0.00
2017-11-19T06:23:51.086Z,0.00
2017-11-19T06:24:51.116Z,0.00
2017-11-19T06:25:51.141Z,0.00
2017-11-19T06:26:51.169Z,0.00
2017-11-19T06:27:51.198Z,0.00
2017-11-19T06:28:51.226Z,0.00
2017-11-19T06:29:51.252Z,0.00
2017-11-19T06:30:51.281Z,0.00
2017-11-19T06:31:51.308Z,0.00
2017-11-19T06:32:51.337Z,0.00
2017-11-19T06:33:51.367Z,0.00
2017-11-19T06:34:51.391Z,0.00
2017-11-19T06:35:51.418Z,0.00
2017-11-19T06:36:51.450Z,0.00
2017-11-19T06:37:51.475Z,0.00
2017-11-19T06:38:51.501Z,0.00
2017-11-19T06:39:51.531Z,0.00
2017-11-19T06:40:51.558Z,0.00
2017-11-19T06:41:51.588Z,0.00
2017-11-19T06:42:51.614Z,0.00
2017-11-19T06:43:51.642Z,0.00
2017-11-19T06:44:51.679Z,0.00
2017-11-19T06:45:51.697Z,0.00
2017-11-19T06:46:51.723Z,0.00
2017-11-19T06:47:51.753Z,0.00
2017-11-19T06:48:51.782Z,0.00
2017-11-19T06:49:51.809Z,0.00
2017-11-19T06:50:51.837Z,0.00
2017-11-19T06:51:51.864Z,0.00
2017-11-19T06:52:51.893Z,0.00
2017-11-19T06:53:51.920Z,0.00
2017-11-19T06:54:51.947Z,0.00
2017-11-19T06:55:51.977Z,0.00
2017-11-19T06:56:52.004Z,0.00
2017-11-19T06:57:52.031Z,0.00
2017-11-19T06:58:52.062Z,5.63
2017-11-19T06:59:52.086Z,5.63
2017-11-19T07:00:52.116Z,5.63
2017-11-19T07:01:52.147Z,5.63
2017-11-19T07:02:52.170Z,5.63
2017-11-19T07:03:52.199Z,5.63
2017-11-19T07:04:52.227Z,5.63
2017-11-19T07:05:52.253Z,5.63
2017-11-19T07:06:52.283Z,5.63
2017-11-19T07:07:52.330Z,5.63
2017-11-19T07:08:52.345Z,11.25
2017-11-19T07:09:52.367Z,11.25
2017-11-19T07:10:52.394Z,11.25
2017-11-19T07:11:52.422Z,11.25
2017-11-19T07:12:52.450Z,11.25
2017-11-19T07:13:52.477Z,11.25
2017-11-19T07:14:52.505Z,11.25
2017-11-19T07:15:52.534Z,11.25
2017-11-19T07:16:52.571Z,11.25
2017-11-19T07:17:52.588Z,11.25
2017-11-19T07:18:52.617Z,11.25
2017-11-19T07:19:52.644Z,11.25
2017-11-19T07:20:52.673Z,11.25
2017-11-19T07:21:52.700Z,11.25
2017-11-19T07:22:52.729Z,11.25
2017-11-19T07:23:52.757Z,11.25
2017-11-19T07:24:52.785Z,11.25
2017-11-19T07:25:52.811Z,11.25
2017-11-19T07:26:52.845Z,11.25
2017-11-19T07:27:52.869Z,11.25
2017-11-19T07:28:52.896Z,11.25
2017-11-19T07:29:52.924Z,11.25
2017-11-19T07:30:52.952Z,11.25
2017-11-19T07:31:52.982Z,11.25
2017-11-19T07:32:53.008Z,11.25
2017-11-19T07:33:53.035Z,11.25
2017-11-19T07:34:53.062Z,11.25
2017-11-19T07:35:53.092Z,11.25
2017-11-19T07:36:53.123Z,11.25
2017-11-19T07:37:53.147Z,5.63
2017-11-19T07:38:53.174Z,11.25
2017-11-19T07:39:53.202Z,11.25
2017-11-19T07:40:53.230Z,22.50
2017-11-19T07:41:53.258Z,28.13
2017-11-19T07:42:53.285Z,28.13
2017-11-19T07:43:53.313Z,33.75
2017-11-19T07:44:53.341Z,33.75
2017-11-19T07:45:53.369Z,39.38
2017-11-19T07:46:53.396Z,39.38
2017-11-19T07:47:53.425Z,45.00
2017-11-19T07:48:53.453Z,50.63
2017-11-19T07:49:53.480Z,56.25
2017-11-19T07:50:53.508Z,56.25
2017-11-19T07:51:53.537Z,61.88
2017-11-19T07:52:53.565Z,61.88
2017-11-19T07:53:53.594Z,61.88
2017-11-19T07:54:53.623Z,61.88
2017-11-19T07:55:53.649Z,61.88
2017-11-19T07:56:53.676Z,67.50
2017-11-19T07:57:53.703Z,67.50
2017-11-19T07:58:53.732Z,73.13
2017-11-19T07:59:53.761Z,73.13
2017-11-19T08:00:53.788Z,84.38
2017-11-19T08:01:53.816Z,90.00
2017-11-19T08:02:53.844Z,95.63
2017-11-19T08:03:53.873Z,101.25
2017-11-19T08:04:53.900Z,101.25
2017-11-19T08:05:53.927Z,106.88
2017-11-19T08:06:53.956Z,106.88
2017-11-19T08:07:53.985Z,106.88
2017-11-19T08:08:54.011Z,106.88
2017-11-19T08:09:54.040Z,118.13
2017-11-19T08:10:54.068Z,129.38
2017-11-19T08:11:54.097Z,140.63
2017-11-19T08:12:54.123Z,157.50
2017-11-19T08:13:54.153Z,163.13
2017-11-19T08:14:54.181Z,196.88
2017-11-19T08:15:54.209Z,202.50
2017-11-19T08:16:54.237Z,219.38
2017-11-19T08:17:54.264Z,225.00
2017-11-19T08:18:54.293Z,241.88
2017-11-19T08:19:54.322Z,286.88
2017-11-19T08:20:54.351Z,405.00
2017-11-19T08:21:54.379Z,309.38
2017-11-19T08:22:54.407Z,208.13
2017-11-19T08:23:54.444Z,253.13
2017-11-19T08:24:54.467Z,163.13
2017-11-19T08:25:54.495Z,151.88
2017-11-19T08:26:54.525Z,135.00
2017-11-19T08:27:54.553Z,123.75
2017-11-19T08:28:54.583Z,123.75
2017-11-19T08:29:54.611Z,123.75
2017-11-19T08:30:54.641Z,123.75
2017-11-19T08:31:54.671Z,129.38
2017-11-19T08:32:54.701Z,123.75
2017-11-19T08:33:54.731Z,135.00
2017-11-19T08:34:54.759Z,146.25
2017-11-19T08:35:54.789Z,163.13
2017-11-19T08:36:54.826Z,168.75
2017-11-19T08:37:54.853Z,174.38
2017-11-19T08:38:54.877Z,174.38
2017-11-19T08:39:54.908Z,168.75
2017-11-19T08:40:54.937Z,174.38
2017-11-19T08:41:54.965Z,168.75
2017-11-19T08:42:54.996Z,168.75
2017-11-19T08:43:55.027Z,168.75
2017-11-19T08:44:55.054Z,163.13
2017-11-19T08:45:55.085Z,157.50
2017-11-19T08:46:55.114Z,157.50
2017-11-19T08:47:55.143Z,157.50
2017-11-19T08:48:55.173Z,157.50
2017-11-19T08:49:55.214Z,168.75
2017-11-19T08:50:55.232Z,264.38
2017-11-19T08:51:55.262Z,523.13
2017-11-19T08:52:55.292Z,219.38
2017-11-19T08:53:55.320Z,202.50
2017-11-19T08:54:55.350Z,196.88
2017-11-19T08:55:55.381Z,905.63
2017-11-19T08:56:55.410Z,922.50
2017-11-19T08:57:55.440Z,956.25
2017-11-19T08:58:55.471Z,961.88
2017-11-19T08:59:55.508Z,956.25
2017-11-19T09:00:55.532Z,950.63
2017-11-19T09:01:55.562Z,950.63
2017-11-19T09:02:55.595Z,933.75
2017-11-19T09:03:55.626Z,950.63
2017-11-19T09:04:55.664Z,1012.50
2017-11-19T09:05:55.743Z,1035.00
2017-11-19T09:06:55.724Z,1057.50
2017-11-19T09:07:55.758Z,1063.13
2017-11-19T09:08:55.794Z,1063.13
2017-11-19T09:09:55.826Z,1068.75
2017-11-19T09:10:55.867Z,1051.88
2017-11-19T09:11:55.897Z,1074.38
2017-11-19T09:12:55.933Z,1080.00
2017-11-19T09:13:55.972Z,1108.13
2017-11-19T09:14:56.003Z,1141.88
2017-11-19T09:15:56.041Z,1147.50
2017-11-19T09:16:56.083Z,1170.00
2017-11-19T09:17:56.115Z,1102.50
2017-11-19T09:18:56.153Z,1181.25
2017-11-19T09:19:56.192Z,1198.13
2017-11-19T09:20:56.229Z,1175.63
2017-11-19T09:21:56.268Z,1186.88
2017-11-19T09:22:56.306Z,770.63
2017-11-19T09:23:56.349Z,1231.88
2017-11-19T09:24:56.385Z,1198.13
2017-11-19T09:25:56.426Z,1248.75
2017-11-19T09:26:56.463Z,1276.88
2017-11-19T09:27:56.503Z,1265.63
2017-11-19T09:28:56.543Z,1299.38
2017-11-19T09:29:56.582Z,1333.13
2017-11-19T09:30:56.622Z,1417.50
2017-11-19T09:31:56.664Z,1406.25
2017-11-19T09:32:56.705Z,1383.75
2017-11-19T09:33:56.745Z,309.38
2017-11-19T09:34:56.785Z,630.00
2017-11-19T09:35:56.826Z,196.88
2017-11-19T09:36:56.869Z,168.75
2017-11-19T09:37:56.924Z,157.50
2017-11-19T09:38:56.953Z,157.50
2017-11-19T09:39:56.991Z,157.50
2017-11-19T09:40:57.035Z,151.88
2017-11-19T09:41:57.072Z,135.00
2017-11-19T09:42:57.112Z,140.63
2017-11-19T09:43:57.152Z,146.25
2017-11-19T09:44:57.190Z,157.50
2017-11-19T09:45:57.229Z,174.38
2017-11-19T09:46:57.268Z,202.50
2017-11-19T09:47:57.305Z,225.00
2017-11-19T09:48:57.344Z,241.88
2017-11-19T09:49:57.388Z,241.88
2017-11-19T09:50:57.418Z,225.00
2017-11-19T09:51:57.456Z,230.63
2017-11-19T09:52:57.498Z,241.88
2017-11-19T09:53:57.528Z,264.38
2017-11-19T09:54:57.565Z,303.75
2017-11-19T09:55:57.638Z,348.75
2017-11-19T09:56:57.638Z,393.75
2017-11-19T09:57:57.673Z,421.88
2017-11-19T09:58:57.709Z,421.88
2017-11-19T09:59:57.744Z,405.00
2017-11-19T10:00:57.780Z,416.25
2017-11-19T10:01:57.814Z,421.88
2017-11-19T10:02:57.849Z,438.75
2017-11-19T10:03:57.885Z,461.25
2017-11-19T10:04:57.920Z,483.75
2017-11-19T10:05:57.971Z,478.13
2017-11-19T10:06:57.989Z,500.63
2017-11-19T10:07:58.031Z,500.63
2017-11-19T10:08:58.058Z,534.38
2017-11-19T10:09:58.092Z,540.00
2017-11-19T10:10:58.129Z,601.88
2017-11-19T10:11:58.161Z,630.00
2017-11-19T10:12:58.197Z,1074.38
2017-11-19T10:13:58.231Z,421.88
2017-11-19T10:14:58.265Z,393.75
2017-11-19T10:15:58.304Z,365.63
2017-11-19T10:16:58.335Z,472.50
2017-11-19T10:17:58.369Z,298.13
2017-11-19T10:18:58.404Z,230.63
2017-11-19T10:19:58.440Z,225.00
2017-11-19T10:20:58.475Z,225.00
2017-11-19T10:21:58.508Z,225.00
2017-11-19T10:22:58.544Z,241.88
2017-11-19T10:23:58.578Z,247.50
2017-11-19T10:24:58.612Z,236.25
2017-11-19T10:25:58.645Z,219.38
2017-11-19T10:26:58.680Z,230.63
2017-11-19T10:27:58.716Z,174.38
2017-11-19T10:28:58.750Z,191.25
2017-11-19T10:29:58.784Z,185.63
2017-11-19T10:30:58.818Z,168.75
2017-11-19T10:31:58.851Z,157.50
2017-11-19T10:32:58.883Z,157.50
2017-11-19T10:33:58.922Z,292.50
2017-11-19T10:34:58.954Z,151.88
2017-11-19T10:35:58.986Z,118.13
2017-11-19T10:36:59.019Z,112.50
2017-11-19T10:37:59.051Z,118.13
2017-11-19T10:38:59.089Z,123.75
2017-11-19T10:39:59.119Z,129.38
2017-11-19T10:40:59.152Z,129.38
2017-11-19T10:41:59.185Z,129.38
2017-11-19T10:42:59.218Z,140.63
2017-11-19T10:43:59.251Z,146.25
2017-11-19T10:44:59.285Z,140.63
2017-11-19T10:45:59.316Z,146.25
2017-11-19T10:46:59.355Z,163.13
2017-11-19T10:47:59.381Z,168.75
2017-11-19T10:48:59.414Z,168.75
2017-11-19T10:49:59.444Z,146.25
2017-11-19T10:50:59.479Z,112.50
2017-11-19T10:51:59.511Z,84.38
2017-11-19T10:52:59.544Z,67.50
2017-11-19T10:53:59.573Z,61.88
2017-11-19T10:54:59.607Z,61.88
2017-11-19T10:55:59.639Z,39.38
2017-11-19T10:56:59.673Z,39.38
2017-11-19T10:57:59.703Z,45.00
2017-11-19T10:58:59.735Z,50.63
2017-11-19T10:59:59.767Z,50.63
2017-11-19T11:00:59.800Z,45.00
2017-11-19T11:01:59.830Z,45.00
2017-11-19T11:02:59.863Z,45.00
2017-11-19T11:03:59.893Z,50.63
2017-11-19T11:04:59.926Z,50.63
2017-11-19T11:05:59.962Z,50.63
2017-11-19T11:06:59.987Z,56.25
2017-11-19T11:08:00.020Z,61.88
2017-11-19T11:09:00.052Z,67.50
2017-11-19T11:10:00.081Z,73.13
2017-11-19T11:11:00.113Z,78.75
2017-11-19T11:12:00.142Z,90.00
2017-11-19T11:13:00.174Z,90.00
2017-11-19T11:14:00.205Z,90.00
2017-11-19T11:15:00.237Z,90.00
2017-11-19T11:16:00.270Z,95.63
2017-11-19T11:17:00.296Z,101.25
2017-11-19T11:18:00.328Z,112.50
2017-11-19T11:19:00.509Z,129.38
2017-11-19T11:20:00.391Z,157.50
2017-11-19T11:21:00.437Z,191.25
2017-11-19T11:22:00.449Z,258.75
2017-11-19T11:23:00.482Z,275.63
2017-11-19T11:24:00.515Z,331.88
2017-11-19T11:25:00.543Z,562.50
2017-11-19T11:26:00.572Z,1788.75
2017-11-19T11:27:00.605Z,2008.13
2017-11-19T11:28:00.635Z,1423.13
2017-11-19T11:29:00.667Z,1338.75
2017-11-19T11:30:00.699Z,573.75
2017-11-19T11:31:00.732Z,500.63
2017-11-19T11:32:00.762Z,686.25
2017-11-19T11:33:00.795Z,2188.13
2017-11-19T11:34:00.829Z,2148.75
2017-11-19T11:35:00.863Z,759.38
2017-11-19T11:36:00.897Z,928.13
2017-11-19T11:37:00.932Z,1423.13
2017-11-19T11:38:00.967Z,1321.88
2017-11-19T11:39:01.009Z,196.88
2017-11-19T11:40:01.039Z,180.00
2017-11-19T11:41:01.075Z,140.63
2017-11-19T11:42:01.110Z,135.00
2017-11-19T11:43:01.147Z,123.75
2017-11-19T11:44:01.184Z,123.75
2017-11-19T11:45:01.220Z,123.75
2017-11-19T11:46:01.255Z,129.38
2017-11-19T11:47:01.292Z,135.00
2017-11-19T11:48:01.327Z,129.38
2017-11-19T11:49:01.362Z,123.75
2017-11-19T11:50:01.399Z,118.13
2017-11-19T11:51:01.433Z,123.75
2017-11-19T11:52:01.469Z,129.38
2017-11-19T11:53:01.504Z,135.00
2017-11-19T11:54:01.537Z,140.63
2017-11-19T11:55:01.572Z,151.88
2017-11-19T11:56:01.606Z,163.13
2017-11-19T11:57:01.641Z,180.00
2017-11-19T11:58:01.692Z,202.50
2017-11-19T11:59:01.706Z,225.00
2017-11-19T12:00:01.740Z,236.25
2017-11-19T12:01:01.772Z,286.88
2017-11-19T12:02:01.806Z,1085.63
2017-11-19T12:03:01.838Z,275.63
2017-11-19T12:04:01.872Z,258.75
2017-11-19T12:05:01.905Z,298.13
2017-11-19T12:06:01.939Z,309.38
2017-11-19T12:07:01.975Z,348.75
2017-11-19T12:08:02.001Z,405.00
2017-11-19T12:09:02.035Z,1738.13
2017-11-19T12:10:02.066Z,551.25
2017-11-19T12:11:02.103Z,669.38
2017-11-19T12:12:02.132Z,545.63
2017-11-19T12:13:02.165Z,1389.38
2017-11-19T12:14:02.209Z,1873.13
2017-11-19T12:15:02.229Z,1822.50
2017-11-19T12:16:02.265Z,1243.13
2017-11-19T12:17:02.298Z,1175.63
2017-11-19T12:18:02.331Z,1940.63
2017-11-19T12:19:02.365Z,1923.75
2017-11-19T12:20:02.402Z,1918.13
2017-11-19T12:21:02.438Z,1929.38
2017-11-19T12:22:02.473Z,1929.38
2017-11-19T12:23:02.509Z,1912.50
2017-11-19T12:24:02.567Z,1906.88
2017-11-19T12:25:02.587Z,1901.25
2017-11-19T12:26:02.625Z,1929.38
2017-11-19T12:27:02.665Z,1929.38
2017-11-19T12:28:02.705Z,1884.38
2017-11-19T12:29:02.745Z,1923.75
2017-11-19T12:30:02.784Z,1912.50
2017-11-19T12:31:02.825Z,1350.00
2017-11-19T12:32:02.867Z,1861.88
2017-11-19T12:33:02.910Z,1912.50
2017-11-19T12:34:02.951Z,1918.13
2017-11-19T12:35:02.999Z,1923.75
2017-11-19T12:36:03.036Z,1957.50
2017-11-19T12:37:03.080Z,1946.25
2017-11-19T12:38:03.124Z,1991.25
2017-11-19T12:39:03.176Z,2008.13
2017-11-19T12:40:03.211Z,1102.50
2017-11-19T12:41:03.254Z,286.88
2017-11-19T12:42:03.299Z,258.75
2017-11-19T12:43:03.349Z,264.38
2017-11-19T12:44:03.388Z,258.75
2017-11-19T12:45:03.430Z,230.63
2017-11-19T12:46:03.475Z,258.75
2017-11-19T12:47:03.515Z,258.75
2017-11-19T12:48:03.561Z,264.38
2017-11-19T12:49:03.602Z,427.50
2017-11-19T12:50:03.642Z,270.00
2017-11-19T12:51:03.684Z,725.63
2017-11-19T12:52:03.726Z,253.13
2017-11-19T12:53:03.766Z,579.38
2017-11-19T12:54:03.805Z,1040.63
2017-11-19T12:55:03.846Z,675.00
2017-11-19T12:56:03.885Z,326.25